createdAt,value
2022-08-18T00:02:14.109Z,41.61
2022-08-18T00:04:45.313Z,41.63
2022-08-18T00:07:06.861Z,41.67
2022-08-18T00:09:33.256Z,41.64
2022-08-18T00:11:59.630Z,41.74
2022-08-18T00:14:26.095Z,41.70
2022-08-18T00:16:52.517Z,41.73
2022-08-18T00:19:18.861Z,41.70
2022-08-18T00:21:45.413Z,41.84
2022-08-18T00:24:11.792Z,41.81
2022-08-18T00:26:38.175Z,41.74
2022-08-18T00:29:04.562Z,41.70
2022-08-18T00:31:30.945Z,41.71
2022-08-18T00:33:57.332Z,41.72
2022-08-18T00:36:23.714Z,41.79
2022-08-18T00:38:50.126Z,41.66
2022-08-18T00:41:16.508Z,41.77
2022-08-18T00:43:42.933Z,41.73
2022-08-18T00:46:09.310Z,41.76
2022-08-18T00:48:35.692Z,41.75
2022-08-18T00:51:02.085Z,41.70
2022-08-18T00:53:30.150Z,41.79
2022-08-18T00:55:54.905Z,41.92
2022-08-18T00:58:21.372Z,41.79
2022-08-18T01:00:47.833Z,41.86
2022-08-18T01:03:14.147Z,41.74
2022-08-18T01:05:40.534Z,41.69
2022-08-18T01:08:06.941Z,41.75
2022-08-18T01:10:33.865Z,41.76
2022-08-18T01:13:00.257Z,41.83
2022-08-18T01:15:29.443Z,41.70
2022-08-18T01:17:53.222Z,41.73
2022-08-18T01:20:19.433Z,41.87
2022-08-18T01:22:45.819Z,41.76
2022-08-18T01:25:12.199Z,41.74
2022-08-18T01:27:38.584Z,41.72
2022-08-18T01:30:04.979Z,41.85
2022-08-18T01:32:31.364Z,41.84
2022-08-18T01:34:57.746Z,41.80
2022-08-18T01:37:24.141Z,41.79
2022-08-18T01:41:01.000Z,41.84
2022-08-18T01:42:16.941Z,41.90
2022-08-18T01:44:43.401Z,41.88
2022-08-18T01:47:09.800Z,41.91
2022-08-18T01:49:36.280Z,41.95
2022-08-18T01:52:02.668Z,41.82
2022-08-18T01:54:29.134Z,41.84
2022-08-18T01:56:55.523Z,41.86
2022-08-18T01:59:21.901Z,41.86
2022-08-18T02:01:53.266Z,41.99
2022-08-18T02:04:33.728Z,41.83
2022-08-18T02:06:42.397Z,41.66
2022-08-18T02:09:07.562Z,41.62
2022-08-18T02:11:33.940Z,41.68
2022-08-18T02:14:00.325Z,41.69
2022-08-18T02:16:26.717Z,41.66
2022-08-18T02:18:53.103Z,41.66
2022-08-18T02:21:19.527Z,41.61
2022-08-18T02:23:49.204Z,41.56
2022-08-18T02:26:12.281Z,41.49
2022-08-18T02:28:38.662Z,41.51
2022-08-18T02:31:05.079Z,41.53
2022-08-18T02:33:31.454Z,41.42
2022-08-18T02:35:59.091Z,41.44
2022-08-18T02:38:24.273Z,41.49
2022-08-18T02:40:50.660Z,41.53
2022-08-18T02:43:17.052Z,41.51
2022-08-18T02:45:43.444Z,41.53
2022-08-18T02:48:09.826Z,41.58
2022-08-18T02:50:36.203Z,41.57
2022-08-18T02:53:02.591Z,41.57
2022-08-18T02:55:28.966Z,41.50
2022-08-18T02:57:55.379Z,41.57
2022-08-18T03:00:21.762Z,41.60
2022-08-18T03:02:48.150Z,41.65
2022-08-18T03:05:14.971Z,41.73
2022-08-18T03:07:40.975Z,41.75
2022-08-18T03:10:33.200Z,41.76
2022-08-18T03:12:33.772Z,41.78
2022-08-18T03:15:00.158Z,41.78
2022-08-18T03:17:26.560Z,41.74
2022-08-18T03:19:52.971Z,41.76
2022-08-18T03:22:28.601Z,41.74
2022-08-18T03:24:45.805Z,41.82
2022-08-18T03:27:12.218Z,41.75
2022-08-18T03:29:40.262Z,41.71
2022-08-18T03:32:05.004Z,41.70
2022-08-18T03:34:31.377Z,41.74
2022-08-18T03:36:57.767Z,41.67
2022-08-18T03:39:24.145Z,41.70
2022-08-18T03:41:58.536Z,41.76
2022-08-18T03:44:16.919Z,41.77
2022-08-18T03:46:43.305Z,41.73
2022-08-18T03:49:09.685Z,41.65
2022-08-18T03:51:36.074Z,41.70
2022-08-18T03:54:02.451Z,41.63
2022-08-18T03:56:28.843Z,41.73
2022-08-18T03:58:55.217Z,41.64
2022-08-18T04:01:23.746Z,41.61
2022-08-18T04:03:47.975Z,41.63
2022-08-18T04:06:14.388Z,41.65
2022-08-18T04:08:40.778Z,41.73
2022-08-18T04:11:07.160Z,42.07
2022-08-18T04:13:33.541Z,42.83
2022-08-18T04:15:59.929Z,42.74
2022-08-18T04:18:26.323Z,42.74
2022-08-18T04:20:56.267Z,42.95
2022-08-18T04:23:19.088Z,43.24
2022-08-18T04:25:45.474Z,43.30
2022-08-18T04:28:11.852Z,43.23
2022-08-18T04:30:38.231Z,43.19
2022-08-18T04:33:04.607Z,43.16
2022-08-18T04:35:30.995Z,43.07
2022-08-18T04:37:57.382Z,42.96
2022-08-18T04:40:25.299Z,42.91
2022-08-18T04:42:50.274Z,42.85
2022-08-18T04:45:16.659Z,42.79
2022-08-18T04:47:43.038Z,42.80
2022-08-18T04:50:09.424Z,42.71
2022-08-18T04:52:40.876Z,42.69
2022-08-18T04:55:02.246Z,42.60
2022-08-18T04:57:28.627Z,42.56
2022-08-18T04:59:55.007Z,42.59
2022-08-18T05:02:21.401Z,42.66
2022-08-18T05:04:47.788Z,42.64
2022-08-18T05:07:14.171Z,42.65
2022-08-18T05:09:41.068Z,42.67
2022-08-18T05:12:06.939Z,42.74
2022-08-18T05:14:33.316Z,42.71
2022-08-18T05:16:59.700Z,42.69
2022-08-18T05:19:26.795Z,42.73
2022-08-18T05:21:53.411Z,42.73
2022-08-18T05:24:19.801Z,42.68
2022-08-18T05:26:46.176Z,42.73
2022-08-18T05:29:18.047Z,42.78
2022-08-18T05:31:38.962Z,42.80
2022-08-18T05:34:05.353Z,42.81
2022-08-18T05:36:31.730Z,42.87
2022-08-18T05:38:58.117Z,42.86
2022-08-18T05:41:24.500Z,42.90
2022-08-18T05:43:51.218Z,42.95
2022-08-18T05:46:17.360Z,42.96
2022-08-18T05:48:43.917Z,42.96
2022-08-18T05:51:10.122Z,43.05
2022-08-18T05:53:36.511Z,43.13
2022-08-18T05:56:05.069Z,43.16
2022-08-18T05:58:33.835Z,43.18
2022-08-18T06:00:59.624Z,43.30
2022-08-18T06:03:24.332Z,43.39
2022-08-18T06:05:50.668Z,43.47
2022-08-18T06:08:17.057Z,43.50
2022-08-18T06:10:43.450Z,43.51
2022-08-18T06:13:09.833Z,43.57
2022-08-18T06:15:36.201Z,43.68
2022-08-18T06:18:02.587Z,43.76
2022-08-18T06:20:28.980Z,43.92
2022-08-18T06:22:55.534Z,43.95
2022-08-18T06:25:21.765Z,44.03
2022-08-18T06:27:48.213Z,44.11
2022-08-18T06:30:14.549Z,44.17
2022-08-18T06:32:41.024Z,44.27
2022-08-18T06:35:07.403Z,44.10
2022-08-18T06:37:33.801Z,44.24
2022-08-18T06:40:00.268Z,44.43
2022-08-18T06:42:26.575Z,44.29
2022-08-18T06:44:53.005Z,44.39
2022-08-18T06:47:19.390Z,44.43
2022-08-18T06:49:45.804Z,44.43
2022-08-18T06:52:12.190Z,44.66
2022-08-18T06:54:38.579Z,44.45
2022-08-18T06:57:04.964Z,44.48
2022-08-18T06:59:31.406Z,44.50
2022-08-18T07:01:57.783Z,44.67
2022-08-18T07:04:24.165Z,44.63
2022-08-18T07:06:50.560Z,44.89
2022-08-18T07:09:17.105Z,44.91
2022-08-18T07:11:43.493Z,44.86
2022-08-18T07:14:16.661Z,44.75
2022-08-18T07:16:57.168Z,44.86
2022-08-18T07:19:02.658Z,44.89
2022-08-18T07:21:29.042Z,45.07
2022-08-18T07:24:21.067Z,45.19
2022-08-18T07:26:21.847Z,45.10
2022-08-18T07:28:48.334Z,45.16
2022-08-18T07:31:17.311Z,45.17
2022-08-18T07:33:41.105Z,45.27
2022-08-18T07:36:07.496Z,45.32
2022-08-18T07:38:49.433Z,45.52
2022-08-18T07:41:00.407Z,45.53
2022-08-18T07:43:26.786Z,45.72
2022-08-18T07:45:53.242Z,45.64
2022-08-18T07:48:38.738Z,45.62
2022-08-18T07:50:58.247Z,45.65
2022-08-18T07:53:12.389Z,45.66
2022-08-18T07:55:38.782Z,45.50
2022-08-18T07:58:05.179Z,45.56
2022-08-18T08:02:58.124Z,45.61
2022-08-18T08:05:24.516Z,45.53
2022-08-18T08:07:51.038Z,45.56
2022-08-18T08:10:17.319Z,45.59
2022-08-18T08:12:43.713Z,45.54
2022-08-18T08:15:10.192Z,45.52
2022-08-18T08:17:36.634Z,45.66
2022-08-18T08:20:03.088Z,45.58
2022-08-18T08:22:29.450Z,45.56
2022-08-18T08:24:55.841Z,45.67
2022-08-18T08:27:22.274Z,45.79
2022-08-18T08:29:48.808Z,45.84
2022-08-18T08:32:15.182Z,45.90
2022-08-18T08:34:41.573Z,45.91
2022-08-18T08:37:08.090Z,46.12
2022-08-18T08:39:34.712Z,46.10
2022-08-18T08:42:31.713Z,46.10
2022-08-18T08:44:27.488Z,46.01
2022-08-18T08:46:53.892Z,45.91
2022-08-18T08:49:20.354Z,45.89
2022-08-18T08:51:46.750Z,46.06
2022-08-18T08:54:13.168Z,46.05
2022-08-18T08:56:40.832Z,45.98
2022-08-18T08:59:06.053Z,45.79
2022-08-18T09:01:32.522Z,45.87
2022-08-18T09:03:58.824Z,45.88
2022-08-18T09:06:25.206Z,46.07
2022-08-18T09:08:51.616Z,45.92
2022-08-18T09:11:18.020Z,45.98
2022-08-18T09:13:44.407Z,45.87
2022-08-18T09:16:12.349Z,45.68
2022-08-18T09:18:37.186Z,45.82
2022-08-18T09:21:03.590Z,45.83
2022-08-18T09:23:29.975Z,45.88
2022-08-18T09:25:56.366Z,45.81
2022-08-18T09:28:22.777Z,45.81
2022-08-18T09:30:51.448Z,45.72
2022-08-18T09:33:18.845Z,45.65
2022-08-18T09:35:41.995Z,45.59
2022-08-18T09:38:08.380Z,45.63
2022-08-18T09:43:02.058Z,45.51
2022-08-18T09:45:31.097Z,45.45
2022-08-18T09:47:54.139Z,45.46
2022-08-18T09:52:47.009Z,45.36
2022-08-18T09:55:13.414Z,45.36
2022-08-18T09:57:42.283Z,45.24
2022-08-18T10:00:07.332Z,45.31
2022-08-18T10:02:32.715Z,45.17
2022-08-18T10:04:59.110Z,45.08
2022-08-18T10:07:25.495Z,45.19
2022-08-18T10:09:51.876Z,45.20
2022-08-18T10:12:18.291Z,45.29
2022-08-18T10:14:45.137Z,45.23
2022-08-18T10:17:23.843Z,45.33
2022-08-18T10:19:39.432Z,45.27
2022-08-18T10:22:03.933Z,45.31
2022-08-18T10:24:36.378Z,45.27
2022-08-18T10:26:56.708Z,45.38
2022-08-18T10:29:23.110Z,45.40
2022-08-18T10:31:49.499Z,45.42
2022-08-18T10:34:18.476Z,45.46
2022-08-18T10:36:42.333Z,45.51
2022-08-18T10:39:09.010Z,45.20
2022-08-18T10:41:35.507Z,45.18
2022-08-18T10:44:07.324Z,45.11
2022-08-18T10:46:31.871Z,45.07
2022-08-18T10:48:54.725Z,44.88
2022-08-18T10:53:47.817Z,45.01
2022-08-18T10:56:13.958Z,45.05
2022-08-18T10:58:40.354Z,45.03
2022-08-18T11:01:07.939Z,45.01
2022-08-18T11:05:59.524Z,45.10
2022-08-18T11:08:25.912Z,45.20
2022-08-18T11:11:33.053Z,45.16
2022-08-18T11:13:18.810Z,44.98
2022-08-18T11:15:45.216Z,45.03
2022-08-18T11:18:11.601Z,45.07
2022-08-18T11:20:38.021Z,45.26
2022-08-18T11:23:04.430Z,45.24
2022-08-18T11:25:30.815Z,45.29
2022-08-18T11:27:57.234Z,45.15
2022-08-18T11:30:31.060Z,44.88
2022-08-18T11:32:51.988Z,45.05
2022-08-18T11:35:16.596Z,45.08
2022-08-18T11:37:51.670Z,44.85
2022-08-18T11:40:09.791Z,44.93
2022-08-18T11:42:35.904Z,44.86
2022-08-18T11:45:02.305Z,44.75
2022-08-18T11:47:30.015Z,44.76
2022-08-18T11:49:55.134Z,44.69
2022-08-18T11:52:26.224Z,44.73
2022-08-18T11:54:50.550Z,44.75
2022-08-18T11:57:14.302Z,44.71
2022-08-18T11:59:54.742Z,44.72
2022-08-18T12:02:07.105Z,44.59
2022-08-18T12:04:33.488Z,44.54
2022-08-18T12:06:59.896Z,44.76
2022-08-18T12:11:52.796Z,44.62
2022-08-18T12:14:30.456Z,44.62
2022-08-18T12:16:46.378Z,44.63
2022-08-18T12:19:12.204Z,44.54
2022-08-18T12:21:38.420Z,44.46
2022-08-18T12:24:04.831Z,44.42
2022-08-18T12:26:38.566Z,44.30
2022-08-18T12:29:01.215Z,44.43
2022-08-18T12:31:29.136Z,44.29
2022-08-18T12:34:00.188Z,44.33
2022-08-18T12:36:16.769Z,44.40
2022-08-18T12:38:43.187Z,44.34
2022-08-18T12:41:11.984Z,44.40
2022-08-18T12:43:38.363Z,44.27
2022-08-18T12:46:04.775Z,44.11
2022-08-18T12:48:31.345Z,44.17
2022-08-18T12:50:59.892Z,43.88
2022-08-18T12:53:29.920Z,43.91
2022-08-18T12:55:50.510Z,43.82
2022-08-18T12:58:16.947Z,43.76
2022-08-18T13:00:43.440Z,43.92
2022-08-18T13:03:09.815Z,44.05
2022-08-18T13:05:36.211Z,43.95
2022-08-18T13:08:04.506Z,44.09
2022-08-18T13:10:43.079Z,43.98
2022-08-18T13:12:55.395Z,44.06
2022-08-18T13:15:21.778Z,44.12
2022-08-18T13:17:48.229Z,44.09
2022-08-18T13:20:14.579Z,44.30
2022-08-18T13:22:40.998Z,44.14
2022-08-18T13:25:07.551Z,43.99
2022-08-18T13:27:35.963Z,43.89
2022-08-18T13:30:00.230Z,43.89
2022-08-18T13:32:26.560Z,43.78
2022-08-18T13:34:52.969Z,43.85
2022-08-18T13:37:20.478Z,43.77
2022-08-18T13:39:45.848Z,43.64
2022-08-18T13:42:26.809Z,43.63
2022-08-18T13:44:38.599Z,43.66
2022-08-18T13:47:04.987Z,43.65
2022-08-18T13:49:31.399Z,43.64
2022-08-18T13:51:57.790Z,43.63
2022-08-18T13:54:31.334Z,43.77
2022-08-18T13:56:51.762Z,43.37
2022-08-18T13:59:16.969Z,43.63
2022-08-18T14:01:51.302Z,43.43
2022-08-18T14:04:12.357Z,43.63
2022-08-18T14:06:36.241Z,43.48
2022-08-18T14:09:02.725Z,43.48
2022-08-18T14:11:32.834Z,43.40
2022-08-18T14:13:55.538Z,43.49
2022-08-18T14:16:22.017Z,43.50
2022-08-18T14:18:48.403Z,43.56
2022-08-18T14:21:14.807Z,43.63
2022-08-18T14:23:51.500Z,43.58
2022-08-18T14:26:07.633Z,43.63
2022-08-18T14:28:34.005Z,43.55
2022-08-18T14:31:00.388Z,43.45
2022-08-18T14:33:34.186Z,43.35
2022-08-18T14:36:05.847Z,43.41
2022-08-18T14:38:19.641Z,43.39
2022-08-18T14:40:46.017Z,43.25
2022-08-18T14:43:14.290Z,43.37
2022-08-18T14:45:38.836Z,43.28
2022-08-18T14:48:06.679Z,43.30
2022-08-18T14:50:31.589Z,43.34
2022-08-18T14:52:58.029Z,43.27
2022-08-18T14:55:24.421Z,43.34
2022-08-18T14:57:50.863Z,43.11
2022-08-18T15:00:17.189Z,43.05
2022-08-18T15:02:43.577Z,43.08
2022-08-18T15:05:19.458Z,42.83
2022-08-18T15:07:36.482Z,42.79
2022-08-18T15:10:15.338Z,42.63
2022-08-18T15:12:29.310Z,42.63
2022-08-18T15:14:55.830Z,42.62
2022-08-18T15:17:22.329Z,42.65
2022-08-18T15:20:00.132Z,42.69
2022-08-18T15:22:15.901Z,42.63
2022-08-18T15:24:41.487Z,42.63
2022-08-18T15:27:10.245Z,42.68
2022-08-18T15:29:34.258Z,42.76
2022-08-18T15:32:05.617Z,42.76
2022-08-18T15:34:27.571Z,42.86
2022-08-18T15:36:53.444Z,42.82
2022-08-18T15:39:19.857Z,42.82
2022-08-18T15:41:46.304Z,42.80
2022-08-18T15:44:12.680Z,42.82
2022-08-18T15:46:39.077Z,42.88
2022-08-18T15:49:05.465Z,42.87
2022-08-18T15:51:41.228Z,42.89
2022-08-18T15:53:58.265Z,42.79
2022-08-18T15:56:26.023Z,42.65
2022-08-18T15:58:51.034Z,42.47
2022-08-18T16:01:29.889Z,42.41
2022-08-18T16:03:43.835Z,42.44
2022-08-18T16:06:10.219Z,42.41
2022-08-18T16:08:36.681Z,42.54
2022-08-18T16:11:03.049Z,42.47
2022-08-18T16:13:29.429Z,42.60
2022-08-18T16:15:55.822Z,42.53
2022-08-18T16:18:22.207Z,42.60
2022-08-18T16:20:48.626Z,42.69
2022-08-18T16:23:14.982Z,42.66
2022-08-18T16:25:41.363Z,42.65
2022-08-18T16:28:07.749Z,42.73
2022-08-18T16:30:34.128Z,42.72
2022-08-18T16:33:00.514Z,42.76
2022-08-18T16:35:26.893Z,42.66
2022-08-18T16:37:53.533Z,42.60
2022-08-18T16:40:19.684Z,42.55
2022-08-18T16:42:46.070Z,42.52
2022-08-18T16:45:13.398Z,42.47
2022-08-18T16:47:38.836Z,42.33
2022-08-18T16:50:05.219Z,42.26
2022-08-18T16:52:31.621Z,42.11
2022-08-18T16:54:58.286Z,42.07
2022-08-18T16:57:24.405Z,42.03
2022-08-18T16:59:50.800Z,42.11
2022-08-18T17:02:17.184Z,42.12
2022-08-18T17:04:43.562Z,42.13
2022-08-18T17:07:10.020Z,42.11
2022-08-18T17:09:36.402Z,42.08
2022-08-18T17:12:02.782Z,42.01
2022-08-18T17:14:29.171Z,41.95
2022-08-18T17:16:55.551Z,41.91
2022-08-18T17:19:21.938Z,41.95
2022-08-18T17:21:48.316Z,41.93
2022-08-18T17:24:14.726Z,41.84
2022-08-18T17:26:41.261Z,41.87
2022-08-18T17:29:07.495Z,41.87
2022-08-18T17:31:33.884Z,41.94
2022-08-18T17:34:00.280Z,42.00
2022-08-18T17:36:26.659Z,42.05
2022-08-18T17:38:53.039Z,42.06
2022-08-18T17:41:19.426Z,42.10
2022-08-18T17:46:12.187Z,42.08
2022-08-18T17:48:38.648Z,41.98
2022-08-18T17:51:05.049Z,41.92
2022-08-18T17:53:31.422Z,41.87
2022-08-18T17:55:57.800Z,41.95
2022-08-18T17:58:24.190Z,41.92
2022-08-18T18:00:50.575Z,41.90
2022-08-18T18:03:16.956Z,41.87
2022-08-18T18:05:43.328Z,41.55
2022-08-18T18:08:09.718Z,41.44
2022-08-18T18:10:43.073Z,41.37
2022-08-18T18:13:04.778Z,41.41
2022-08-18T18:15:31.183Z,41.33
2022-08-18T18:17:57.563Z,41.28
2022-08-18T18:20:23.957Z,41.26
2022-08-18T18:22:50.343Z,41.29
2022-08-18T18:25:16.716Z,41.29
2022-08-18T18:27:43.222Z,41.29
2022-08-18T18:30:09.640Z,41.25
2022-08-18T18:32:36.018Z,41.25
2022-08-18T18:35:02.406Z,41.22
2022-08-18T18:37:28.785Z,41.20
2022-08-18T18:39:55.223Z,41.16
2022-08-18T18:42:21.576Z,41.15
2022-08-18T18:44:47.979Z,41.12
2022-08-18T18:47:14.383Z,41.11
2022-08-18T18:49:40.768Z,41.11
2022-08-18T18:52:07.153Z,41.12
2022-08-18T18:54:33.544Z,41.13
2022-08-18T18:57:00.014Z,41.10
2022-08-18T18:59:26.398Z,41.08
2022-08-18T19:01:52.785Z,41.08
2022-08-18T19:04:19.166Z,41.06
2022-08-18T19:06:45.546Z,41.02
2022-08-18T19:09:11.943Z,41.00
2022-08-18T19:11:38.330Z,41.00
2022-08-18T19:14:07.603Z,40.96
2022-08-18T19:16:31.099Z,40.96
2022-08-18T19:19:35.477Z,40.95
2022-08-18T19:22:03.153Z,40.89
2022-08-18T19:23:50.309Z,40.89
2022-08-18T19:26:16.703Z,40.89
2022-08-18T19:29:12.733Z,40.86
2022-08-18T19:31:09.487Z,40.89
2022-08-18T19:33:35.877Z,40.93
2022-08-18T19:36:02.760Z,40.94
2022-08-18T19:38:29.933Z,40.94
2022-08-18T19:40:55.100Z,40.96
2022-08-18T19:43:21.488Z,40.94
2022-08-18T19:45:47.870Z,40.92
2022-08-18T19:48:18.145Z,40.91
2022-08-18T19:50:41.000Z,40.92
2022-08-18T19:53:07.386Z,40.96
2022-08-18T19:55:33.772Z,40.94
2022-08-18T19:58:00.154Z,40.94
2022-08-18T20:00:26.538Z,40.95
2022-08-18T20:02:53.086Z,40.97
2022-08-18T20:05:19.303Z,40.99
2022-08-18T20:07:46.813Z,40.98
2022-08-18T20:10:12.075Z,40.95
2022-08-18T20:12:38.454Z,40.96
2022-08-18T20:15:04.835Z,40.96
2022-08-18T20:17:31.209Z,40.99
2022-08-18T20:19:57.760Z,40.98
2022-08-18T20:22:24.711Z,40.97
2022-08-18T20:24:50.538Z,40.98
2022-08-18T20:27:16.922Z,40.96
2022-08-18T20:29:43.356Z,40.99
2022-08-18T20:32:09.762Z,40.96
2022-08-18T20:34:37.576Z,40.96
2022-08-18T20:37:02.551Z,40.96
2022-08-18T20:39:29.027Z,40.99
2022-08-18T20:41:55.434Z,40.96
2022-08-18T20:44:28.754Z,40.99
2022-08-18T20:46:48.242Z,40.99
2022-08-18T20:49:14.627Z,40.96
2022-08-18T20:51:41.017Z,40.99
2022-08-18T20:54:13.454Z,40.93
2022-08-18T20:56:43.153Z,40.97
2022-08-18T20:59:00.171Z,40.95
2022-08-18T21:01:26.596Z,40.99
2022-08-18T21:03:52.953Z,41.00
2022-08-18T21:06:19.321Z,41.02
2022-08-18T21:08:45.798Z,41.01
2022-08-18T21:11:12.176Z,41.00
2022-08-18T21:13:38.564Z,40.99
2022-08-18T21:16:04.948Z,41.02
2022-08-18T21:18:31.327Z,41.00
2022-08-18T21:20:57.738Z,40.99
2022-08-18T21:23:24.128Z,40.99
2022-08-18T21:25:50.510Z,40.99
2022-08-18T21:28:18.610Z,40.98
2022-08-18T21:30:43.285Z,41.01
2022-08-18T21:33:09.667Z,40.99
2022-08-18T21:35:36.052Z,40.99
2022-08-18T21:38:02.439Z,40.99
2022-08-18T21:40:29.914Z,41.01
2022-08-18T21:42:55.333Z,40.99
2022-08-18T21:45:21.721Z,40.96
2022-08-18T21:47:48.100Z,40.98
2022-08-18T21:50:14.487Z,40.98
2022-08-18T21:52:40.873Z,40.96
2022-08-18T21:55:07.299Z,40.96
2022-08-18T21:57:33.728Z,40.96
2022-08-18T22:00:00.125Z,40.95
2022-08-18T22:02:26.527Z,40.95
2022-08-18T22:04:52.924Z,40.95
2022-08-18T22:07:34.704Z,40.96
2022-08-18T22:09:45.698Z,40.92
2022-08-18T22:12:12.172Z,40.95
2022-08-18T22:14:53.667Z,40.95
2022-08-18T22:17:06.368Z,40.92
2022-08-18T22:19:31.423Z,40.95
2022-08-18T22:21:57.812Z,40.94
2022-08-18T22:24:24.299Z,40.90
2022-08-18T22:26:50.679Z,40.92
2022-08-18T22:29:17.061Z,40.92
2022-08-18T22:31:43.491Z,40.92
2022-08-18T22:34:09.876Z,40.92
2022-08-18T22:36:36.266Z,40.92
2022-08-18T22:39:02.651Z,40.92
2022-08-18T22:41:29.039Z,40.91
2022-08-18T22:43:55.609Z,40.91
2022-08-18T22:46:24.395Z,40.94
2022-08-18T22:48:48.213Z,40.93
2022-08-18T22:51:14.613Z,40.93
2022-08-18T22:53:41.001Z,41.00
2022-08-18T22:56:07.389Z,41.02
2022-08-18T22:58:33.769Z,41.04
2022-08-18T23:01:01.078Z,41.03
2022-08-18T23:03:26.586Z,41.08
2022-08-18T23:05:52.918Z,41.07
2022-08-18T23:08:19.313Z,41.07
2022-08-18T23:10:45.713Z,41.12
2022-08-18T23:13:12.093Z,41.08
2022-08-18T23:15:38.478Z,41.15
2022-08-18T23:18:04.909Z,41.18
2022-08-18T23:20:31.302Z,41.17
2022-08-18T23:22:57.676Z,41.19
2022-08-18T23:25:24.086Z,41.15
2022-08-18T23:27:53.401Z,41.14
2022-08-18T23:30:19.809Z,41.18
2022-08-18T23:32:46.285Z,41.26
2022-08-18T23:35:12.570Z,41.19
2022-08-18T23:37:38.949Z,41.20
2022-08-18T23:40:05.422Z,41.25
2022-08-18T23:42:31.749Z,41.28
2022-08-18T23:44:58.128Z,41.23
2022-08-18T23:47:24.530Z,41.30
2022-08-18T23:49:50.913Z,41.25
2022-08-18T23:52:17.310Z,41.23
2022-08-18T23:54:43.689Z,41.31
2022-08-18T23:57:10.086Z,41.28
2022-08-18T23:59:36.465Z,41.28
